Aviation Digital Data Service (ADDS)

Output produced by METARs form (2031 UTC 23 January 2019)
found at http://www.aviationweather.gov/metar/data/
 
METAR text: UTDD 232000Z 00000MPS 9000 FEW094 OVC110 M01/M05 Q1025 R09/D NOSIG RMK QFE700/0933
Conditions at: UTDD (DUSHANBE , TJ) observed 2000 UTC 23 January 2019
Temperature: -1.0°C (30°F)
Dewpoint: -5.0°C (23°F) [RH = 74%]
Pressure (altimeter): 30.27 inches Hg (1025.0 mb)
Winds: calm
Visibility: 6 miles ( 9 km)
Ceiling: 11000 feet AGL
Clouds: few clouds at 9400 feet AGL
overcast cloud deck at 11000 feet AGL
Weather: no significant weather observed at this time

METAR text: UTDD 231930Z 05002MPS 9000 SCT110 M01/M05 Q1025 R09/D NOSIG RMK QFE700/0933
Conditions at: UTDD (DUSHANBE , TJ) observed 1930 UTC 23 January 2019
Temperature: -1.0°C (30°F)
Dewpoint: -5.0°C (23°F) [RH = 74%]
Pressure (altimeter): 30.27 inches Hg (1025.0 mb)
Winds: from the NE (50 degrees) at 5 MPH (4 knots; 2.1 m/s)
Visibility: 6 miles ( 9 km)
Ceiling: at least 12,000 feet AGL
Clouds: scattered clouds at 11000 feet AGL
Weather: no significant weather observed at this time

METAR text: UTDD 231900Z 05001MPS 6000 FEW013 M01/M05 Q1025 R09/D NOSIG RMK QFE700/0933
Conditions at: UTDD (DUSHANBE , TJ) observed 1900 UTC 23 January 2019
Temperature: -1.0°C (30°F)
Dewpoint: -5.0°C (23°F) [RH = 74%]
Pressure (altimeter): 30.27 inches Hg (1025.0 mb)
Winds: from the NE (50 degrees) at 2 MPH (2 knots; 1.0 m/s)
Visibility: 4 miles ( 6 km)
Ceiling: at least 12,000 feet AGL
Clouds: few clouds at 1300 feet AGL
Weather: no significant weather observed at this time

METAR text: UTDD 231830Z 10002MPS 6000 NSC M01/M05 Q1025 R09/D NOSIG RMK QFE700/0933
Conditions at: UTDD (DUSHANBE , TJ) observed 1830 UTC 23 January 2019
Temperature: -1.0°C (30°F)
Dewpoint: -5.0°C (23°F) [RH = 74%]
Pressure (altimeter): 30.27 inches Hg (1025.0 mb)
Winds: from the E (100 degrees) at 5 MPH (4 knots; 2.1 m/s)
Visibility: 4 miles ( 6 km)
Ceiling: at least 12,000 feet AGL
Clouds: sky clear below 12,000 feet AGL
Weather: no significant weather observed at this time

METAR text: UTDD 231800Z VRB01MPS 7000 NSC M00/M05 Q1025 R09/D NOSIG RMK QFE700/0933
Conditions at: UTDD (DUSHANBE , TJ) observed 1800 UTC 23 January 2019
Temperature: 0.0°C (32°F)
Dewpoint: -5.0°C (23°F) [RH = 69%]
Pressure (altimeter): 30.27 inches Hg (1025.0 mb)
Winds: variable direction winds at 2 MPH (2 knots; 1.0 m/s)
Visibility: 4 miles ( 7 km)
Ceiling: at least 12,000 feet AGL
Clouds: sky clear below 12,000 feet AGL
Weather: no significant weather observed at this time

METAR text: UTDD 231730Z VRB01MPS 6000 NSC 00/M05 Q1025 R09/D NOSIG RMK QFE700/0933
Conditions at: UTDD (DUSHANBE , TJ) observed 1730 UTC 23 January 2019
Temperature: 0.0°C (32°F)
Dewpoint: -5.0°C (23°F) [RH = 69%]
Pressure (altimeter): 30.27 inches Hg (1025.0 mb)
Winds: variable direction winds at 2 MPH (2 knots; 1.0 m/s)
Visibility: 4 miles ( 6 km)
Ceiling: at least 12,000 feet AGL
Clouds: sky clear below 12,000 feet AGL
Weather: no significant weather observed at this time

METAR text: UTDD 231700Z VRB01MPS 6000 NSC 00/M05 Q1024 R09/D NOSIG RMK QFE699/0933
Conditions at: UTDD (DUSHANBE , TJ) observed 1700 UTC 23 January 2019
Temperature: 0.0°C (32°F)
Dewpoint: -5.0°C (23°F) [RH = 69%]
Pressure (altimeter): 30.24 inches Hg (1024.0 mb)
Winds: variable direction winds at 2 MPH (2 knots; 1.0 m/s)
Visibility: 4 miles ( 6 km)
Ceiling: at least 12,000 feet AGL
Clouds: sky clear below 12,000 feet AGL
Weather: no significant weather observed at this time

METAR text: UTDD 231630Z 07003MPS 5000 BR FU NSC 00/M05 Q1024 R09/D NOSIG RMK QFE699/0932
Conditions at: UTDD (DUSHANBE , TJ) observed 1630 UTC 23 January 2019
Temperature: 0.0°C (32°F)
Dewpoint: -5.0°C (23°F) [RH = 69%]
Pressure (altimeter): 30.24 inches Hg (1024.0 mb)
Winds: from the ENE (70 degrees) at 7 MPH (6 knots; 3.1 m/s)
Visibility: 3 miles ( 5 km)
Ceiling: at least 12,000 feet AGL
Clouds: sky clear below 12,000 feet AGL
Weather: BR FU  (mist, smoke)

METAR text: UTDD 231600Z 09002MPS 4500 FU NSC 01/M06 Q1024 R09/D NOSIG RMK QFE699/0932
Conditions at: UTDD (DUSHANBE , TJ) observed 1600 UTC 23 January 2019
Temperature: 1.0°C (34°F)
Dewpoint: -6.0°C (21°F) [RH = 59%]
Pressure (altimeter): 30.24 inches Hg (1024.0 mb)
Winds: from the E (90 degrees) at 5 MPH (4 knots; 2.1 m/s)
Visibility: 2.80 miles (4.51 km)
Ceiling: at least 12,000 feet AGL
Clouds: sky clear below 12,000 feet AGL
Weather: FU  (smoke)

METAR text: UTDD 231530Z VRB01MPS 7000 FEW100 00/M06 Q1024 R09/D NOSIG RMK QFE699/0932
Conditions at: UTDD (DUSHANBE , TJ) observed 1530 UTC 23 January 2019
Temperature: 0.0°C (32°F)
Dewpoint: -6.0°C (21°F) [RH = 64%]
Pressure (altimeter): 30.24 inches Hg (1024.0 mb)
Winds: variable direction winds at 2 MPH (2 knots; 1.0 m/s)
Visibility: 4 miles ( 7 km)
Ceiling: at least 12,000 feet AGL
Clouds: few clouds at 10000 feet AGL
Weather: no significant weather observed at this time

METAR text: UTDD 231500Z 03003MPS 6000 SCT100 02/M05 Q1024 R09/D NOSIG RMK QFE699/0932
Conditions at: UTDD (DUSHANBE , TJ) observed 1500 UTC 23 January 2019
Temperature: 2.0°C (36°F)
Dewpoint: -5.0°C (23°F) [RH = 60%]
Pressure (altimeter): 30.24 inches Hg (1024.0 mb)
Winds: from the NNE (30 degrees) at 7 MPH (6 knots; 3.1 m/s)
Visibility: 4 miles ( 6 km)
Ceiling: at least 12,000 feet AGL
Clouds: scattered clouds at 10000 feet AGL
Weather: no significant weather observed at this time

METAR text: UTDD 231430Z 04003MPS 5000 FU FEW099 02/M05 Q1023 R09/D NOSIG RMK QFE699/0932
Conditions at: UTDD (DUSHANBE , TJ) observed 1430 UTC 23 January 2019
Temperature: 2.0°C (36°F)
Dewpoint: -5.0°C (23°F) [RH = 60%]
Pressure (altimeter): 30.21 inches Hg (1023.0 mb)
Winds: from the NE (40 degrees) at 7 MPH (6 knots; 3.1 m/s)
Visibility: 3 miles ( 5 km)
Ceiling: at least 12,000 feet AGL
Clouds: few clouds at 9900 feet AGL
Weather: FU  (smoke)

METAR text: UTDD 231400Z 03002MPS 5000 FU NSC 03/M05 Q1023 R09/D NOSIG RMK QFE698/0931
Conditions at: UTDD (DUSHANBE , TJ) observed 1400 UTC 23 January 2019
Temperature: 3.0°C (37°F)
Dewpoint: -5.0°C (23°F) [RH = 56%]
Pressure (altimeter): 30.21 inches Hg (1023.0 mb)
Winds: from the NNE (30 degrees) at 5 MPH (4 knots; 2.1 m/s)
Visibility: 3 miles ( 5 km)
Ceiling: at least 12,000 feet AGL
Clouds: sky clear below 12,000 feet AGL
Weather: FU  (smoke)

METAR text: UTDD 231330Z 02002MPS 7000 NSC 03/M05 Q1023 R09/D NOSIG RMK QFE698/0931
Conditions at: UTDD (DUSHANBE , TJ) observed 1330 UTC 23 January 2019
Temperature: 3.0°C (37°F)
Dewpoint: -5.0°C (23°F) [RH = 56%]
Pressure (altimeter): 30.21 inches Hg (1023.0 mb)
Winds: from the NNE (20 degrees) at 5 MPH (4 knots; 2.1 m/s)
Visibility: 4 miles ( 7 km)
Ceiling: at least 12,000 feet AGL
Clouds: sky clear below 12,000 feet AGL
Weather: no significant weather observed at this time

METAR text: UTDD 231300Z 02002MPS 6000 NSC 04/M05 Q1022 R09/D NOSIG RMK QFE698/0931
Conditions at: UTDD (DUSHANBE , TJ) observed 1300 UTC 23 January 2019
Temperature: 4.0°C (39°F)
Dewpoint: -5.0°C (23°F) [RH = 52%]
Pressure (altimeter): 30.18 inches Hg (1022.0 mb)
Winds: from the NNE (20 degrees) at 5 MPH (4 knots; 2.1 m/s)
Visibility: 4 miles ( 6 km)
Ceiling: at least 12,000 feet AGL
Clouds: sky clear below 12,000 feet AGL
Weather: no significant weather observed at this time

METAR text: UTDD 231230Z 16001MPS 7000 NSC 04/M03 Q1022 R09/D NOSIG RMK QFE698/0930
Conditions at: UTDD (DUSHANBE , TJ) observed 1230 UTC 23 January 2019
Temperature: 4.0°C (39°F)
Dewpoint: -3.0°C (27°F) [RH = 60%]
Pressure (altimeter): 30.18 inches Hg (1022.0 mb)
Winds: from the SSE (160 degrees) at 2 MPH (2 knots; 1.0 m/s)
Visibility: 4 miles ( 7 km)
Ceiling: at least 12,000 feet AGL
Clouds: sky clear below 12,000 feet AGL
Weather: no significant weather observed at this time

METAR text: UTDD 231200Z 16002MPS 9999 NSC 06/M04 Q1022 R09/D NOSIG RMK QFE697/0930
Conditions at: UTDD (DUSHANBE , TJ) observed 1200 UTC 23 January 2019
Temperature: 6.0°C (43°F)
Dewpoint: -4.0°C (25°F) [RH = 49%]
Pressure (altimeter): 30.18 inches Hg (1022.0 mb)
Winds: from the SSE (160 degrees) at 5 MPH (4 knots; 2.1 m/s)
Visibility: 6 or more miles (10+ km)
Ceiling: at least 12,000 feet AGL
Clouds: sky clear below 12,000 feet AGL
Weather: no significant weather observed at this time

METAR text: UTDD 231130Z 10002MPS 9999 NSC 06/M05 Q1022 R09/D NOSIG RMK QFE697/0930
Conditions at: UTDD (DUSHANBE , TJ) observed 1130 UTC 23 January 2019
Temperature: 6.0°C (43°F)
Dewpoint: -5.0°C (23°F) [RH = 45%]
Pressure (altimeter): 30.18 inches Hg (1022.0 mb)
Winds: from the E (100 degrees) at 5 MPH (4 knots; 2.1 m/s)
Visibility: 6 or more miles (10+ km)
Ceiling: at least 12,000 feet AGL
Clouds: sky clear below 12,000 feet AGL
Weather: no significant weather observed at this time

METAR text: UTDD 231100Z 10002MPS 9999 NSC 06/M06 Q1021 R09/D NOSIG RMK QFE697/0930
Conditions at: UTDD (DUSHANBE , TJ) observed 1100 UTC 23 January 2019
Temperature: 6.0°C (43°F)
Dewpoint: -6.0°C (21°F) [RH = 42%]
Pressure (altimeter): 30.15 inches Hg (1021.0 mb)
Winds: from the E (100 degrees) at 5 MPH (4 knots; 2.1 m/s)
Visibility: 6 or more miles (10+ km)
Ceiling: at least 12,000 feet AGL
Clouds: sky clear below 12,000 feet AGL
Weather: no significant weather observed at this time

METAR text: UTDD 231030Z VRB02MPS 9000 FEW120 06/M07 Q1021 R09/D NOSIG RMK QFE697/0929
Conditions at: UTDD (DUSHANBE , TJ) observed 1030 UTC 23 January 2019
Temperature: 6.0°C (43°F)
Dewpoint: -7.0°C (19°F) [RH = 39%]
Pressure (altimeter): 30.15 inches Hg (1021.0 mb)
Winds: variable direction winds at 5 MPH (4 knots; 2.1 m/s)
Visibility: 6 miles ( 9 km)
Ceiling: at least 12,000 feet AGL
Clouds: few clouds at 12000 feet AGL
Weather: no significant weather observed at this time

METAR text: UTDD 231000Z VRB02MPS 9999 FEW120 06/M08 Q1021 R09/D NOSIG RMK QFE697/0929
Conditions at: UTDD (DUSHANBE , TJ) observed 1000 UTC 23 January 2019
Temperature: 6.0°C (43°F)
Dewpoint: -8.0°C (18°F) [RH = 36%]
Pressure (altimeter): 30.15 inches Hg (1021.0 mb)
Winds: variable direction winds at 5 MPH (4 knots; 2.1 m/s)
Visibility: 6 or more miles (10+ km)
Ceiling: at least 12,000 feet AGL
Clouds: few clouds at 12000 feet AGL
Weather: no significant weather observed at this time

METAR text: UTDD 230930Z VRB02MPS 8000 FEW120 06/M06 Q1021 R09/D NOSIG RMK QFE697/0929
Conditions at: UTDD (DUSHANBE , TJ) observed 0930 UTC 23 January 2019
Temperature: 6.0°C (43°F)
Dewpoint: -6.0°C (21°F) [RH = 42%]
Pressure (altimeter): 30.15 inches Hg (1021.0 mb)
Winds: variable direction winds at 5 MPH (4 knots; 2.1 m/s)
Visibility: 5 miles ( 8 km)
Ceiling: at least 12,000 feet AGL
Clouds: few clouds at 12000 feet AGL
Weather: no significant weather observed at this time

METAR text: UTDD 230900Z 13003MPS 7000 NSC 05/M07 Q1021 R09/D NOSIG RMK QFE697/0930
Conditions at: UTDD (DUSHANBE , TJ) observed 0900 UTC 23 January 2019
Temperature: 5.0°C (41°F)
Dewpoint: -7.0°C (19°F) [RH = 41%]
Pressure (altimeter): 30.15 inches Hg (1021.0 mb)
Winds: from the SE (130 degrees) at 7 MPH (6 knots; 3.1 m/s)
Visibility: 4 miles ( 7 km)
Ceiling: at least 12,000 feet AGL
Clouds: sky clear below 12,000 feet AGL
Weather: no significant weather observed at this time

METAR text: UTDD 230830Z VRB01MPS 4600 FU FEW130 06/M06 Q1021 R09/D NOSIG RMK QFE697/0930
Conditions at: UTDD (DUSHANBE , TJ) observed 0830 UTC 23 January 2019
Temperature: 6.0°C (43°F)
Dewpoint: -6.0°C (21°F) [RH = 42%]
Pressure (altimeter): 30.15 inches Hg (1021.0 mb)
Winds: variable direction winds at 2 MPH (2 knots; 1.0 m/s)
Visibility: 2.86 miles (4.60 km)
Ceiling: at least 12,000 feet AGL
Clouds: few clouds at 13000 feet AGL
Weather: FU  (smoke)

METAR text: UTDD 230800Z VRB02MPS 4400 FU FEW089 05/M05 Q1021 R09/D NOSIG RMK QFE697/0930
Conditions at: UTDD (DUSHANBE , TJ) observed 0800 UTC 23 January 2019
Temperature: 5.0°C (41°F)
Dewpoint: -5.0°C (23°F) [RH = 48%]
Pressure (altimeter): 30.15 inches Hg (1021.0 mb)
Winds: variable direction winds at 5 MPH (4 knots; 2.1 m/s)
Visibility: 2.73 miles (4.39 km)
Ceiling: at least 12,000 feet AGL
Clouds: few clouds at 8900 feet AGL
Weather: FU  (smoke)

METAR text: UTDD 230730Z 17002MPS 4300 FU NSC 04/M05 Q1022 R09/D NOSIG RMK QFE697/0930
Conditions at: UTDD (DUSHANBE , TJ) observed 0730 UTC 23 January 2019
Temperature: 4.0°C (39°F)
Dewpoint: -5.0°C (23°F) [RH = 52%]
Pressure (altimeter): 30.18 inches Hg (1022.0 mb)
Winds: from the S (170 degrees) at 5 MPH (4 knots; 2.1 m/s)
Visibility: 2.67 miles (4.30 km)
Ceiling: at least 12,000 feet AGL
Clouds: sky clear below 12,000 feet AGL
Weather: FU  (smoke)

METAR text: UTDD 230700Z VRB02MPS 3600 FU NSC 04/M05 Q1022 R09/D NOSIG RMK QFE698/0930
Conditions at: UTDD (DUSHANBE , TJ) observed 0700 UTC 23 January 2019
Temperature: 4.0°C (39°F)
Dewpoint: -5.0°C (23°F) [RH = 52%]
Pressure (altimeter): 30.18 inches Hg (1022.0 mb)
Winds: variable direction winds at 5 MPH (4 knots; 2.1 m/s)
Visibility: 2.24 miles (3.60 km)
Ceiling: at least 12,000 feet AGL
Clouds: sky clear below 12,000 feet AGL
Weather: FU  (smoke)

METAR text: UTDD 230630Z 16001MPS 3000 FU NSC 04/M06 Q1022 R09/D NOSIG RMK QFE698/0931
Conditions at: UTDD (DUSHANBE , TJ) observed 0630 UTC 23 January 2019
Temperature: 4.0°C (39°F)
Dewpoint: -6.0°C (21°F) [RH = 48%]
Pressure (altimeter): 30.18 inches Hg (1022.0 mb)
Winds: from the SSE (160 degrees) at 2 MPH (2 knots; 1.0 m/s)
Visibility: 1.86 miles (2.99 km)
Ceiling: at least 12,000 feet AGL
Clouds: sky clear below 12,000 feet AGL
Weather: FU  (smoke)

METAR text: UTDD 230600Z 18001MPS 2200 FU NSC 02/M06 Q1022 R09/D NOSIG RMK QFE698/0931
Conditions at: UTDD (DUSHANBE , TJ) observed 0600 UTC 23 January 2019
Temperature: 2.0°C (36°F)
Dewpoint: -6.0°C (21°F) [RH = 55%]
Pressure (altimeter): 30.18 inches Hg (1022.0 mb)
Winds: from the S (180 degrees) at 2 MPH (2 knots; 1.0 m/s)
Visibility: 1.37 miles (2.20 km)
Ceiling: at least 12,000 feet AGL
Clouds: sky clear below 12,000 feet AGL
Weather: FU  (smoke)

METAR text: UTDD 230530Z VRB01MPS 4400 FU NSC 02/M06 Q1022 R09/D NOSIG RMK QFE698/0931
Conditions at: UTDD (DUSHANBE , TJ) observed 0530 UTC 23 January 2019
Temperature: 2.0°C (36°F)
Dewpoint: -6.0°C (21°F) [RH = 55%]
Pressure (altimeter): 30.18 inches Hg (1022.0 mb)
Winds: variable direction winds at 2 MPH (2 knots; 1.0 m/s)
Visibility: 2.73 miles (4.39 km)
Ceiling: at least 12,000 feet AGL
Clouds: sky clear below 12,000 feet AGL
Weather: FU  (smoke)

METAR text: UTDD 230500Z 02001MPS 4400 BR FU NSC M00/M06 Q1022 R09/D NOSIG RMK QFE698/0930
Conditions at: UTDD (DUSHANBE , TJ) observed 0500 UTC 23 January 2019
Temperature: 0.0°C (32°F)
Dewpoint: -6.0°C (21°F) [RH = 64%]
Pressure (altimeter): 30.18 inches Hg (1022.0 mb)
Winds: from the NNE (20 degrees) at 2 MPH (2 knots; 1.0 m/s)
Visibility: 2.73 miles (4.39 km)
Ceiling: at least 12,000 feet AGL
Clouds: sky clear below 12,000 feet AGL
Weather: BR FU  (mist, smoke)

METAR text: UTDD 230430Z 09001MPS 4100 BR FU NSC M02/M07 Q1022 R09/D NOSIG RMK QFE698/0930
Conditions at: UTDD (DUSHANBE , TJ) observed 0430 UTC 23 January 2019
Temperature: -2.0°C (28°F)
Dewpoint: -7.0°C (19°F) [RH = 69%]
Pressure (altimeter): 30.18 inches Hg (1022.0 mb)
Winds: from the E (90 degrees) at 2 MPH (2 knots; 1.0 m/s)
Visibility: 2.55 miles (4.10 km)
Ceiling: at least 12,000 feet AGL
Clouds: sky clear below 12,000 feet AGL
Weather: BR FU  (mist, smoke)

METAR text: UTDD 230400Z 00000MPS 3500 BR FU NSC M02/M07 Q1022 R09/D NOSIG RMK QFE697/0930
Conditions at: UTDD (DUSHANBE , TJ) observed 0400 UTC 23 January 2019
Temperature: -2.0°C (28°F)
Dewpoint: -7.0°C (19°F) [RH = 69%]
Pressure (altimeter): 30.18 inches Hg (1022.0 mb)
Winds: calm
Visibility: 2.17 miles (3.49 km)
Ceiling: at least 12,000 feet AGL
Clouds: sky clear below 12,000 feet AGL
Weather: BR FU  (mist, smoke)

METAR text: UTDD 230330Z 16001MPS 0900 0750E R09/P2000N FU NSC M04/M08 Q1021 R09/CLRD// TEMPO 0700 FU RMK QFE697/0930
Conditions at: UTDD (DUSHANBE , TJ) observed 0330 UTC 23 January 2019
Temperature: -4.0°C (25°F)
Dewpoint: -8.0°C (18°F) [RH = 74%]
Pressure (altimeter): 30.15 inches Hg (1021.0 mb)
Winds: from the SSE (160 degrees) at 2 MPH (2 knots; 1.0 m/s)
Visibility: 0.56 miles (0.90 km)
Ceiling: at least 12,000 feet AGL
Clouds: sky clear below 12,000 feet AGL
Weather: FU  (smoke)

METAR text: UTDD 230300Z 04001MPS 6000 NSC M02/M07 Q1021 R09/D NOSIG RMK QFE697/0930
Conditions at: UTDD (DUSHANBE , TJ) observed 0300 UTC 23 January 2019
Temperature: -2.0°C (28°F)
Dewpoint: -7.0°C (19°F) [RH = 69%]
Pressure (altimeter): 30.15 inches Hg (1021.0 mb)
Winds: from the NE (40 degrees) at 2 MPH (2 knots; 1.0 m/s)
Visibility: 4 miles ( 6 km)
Ceiling: at least 12,000 feet AGL
Clouds: sky clear below 12,000 feet AGL
Weather: no significant weather observed at this time

METAR text: UTDD 230230Z VRB01MPS 8000 NSC M02/M07 Q1021 R09/D NOSIG RMK QFE697/0929
Conditions at: UTDD (DUSHANBE , TJ) observed 0230 UTC 23 January 2019
Temperature: -2.0°C (28°F)
Dewpoint: -7.0°C (19°F) [RH = 69%]
Pressure (altimeter): 30.15 inches Hg (1021.0 mb)
Winds: variable direction winds at 2 MPH (2 knots; 1.0 m/s)
Visibility: 5 miles ( 8 km)
Ceiling: at least 12,000 feet AGL
Clouds: sky clear below 12,000 feet AGL
Weather: no significant weather observed at this time

METAR text: UTDD 230200Z VRB02MPS 9999 NSC M02/M07 Q1021 R09/D NOSIG RMK QFE697/0929
Conditions at: UTDD (DUSHANBE , TJ) observed 0200 UTC 23 January 2019
Temperature: -2.0°C (28°F)
Dewpoint: -7.0°C (19°F) [RH = 69%]
Pressure (altimeter): 30.15 inches Hg (1021.0 mb)
Winds: variable direction winds at 5 MPH (4 knots; 2.1 m/s)
Visibility: 6 or more miles (10+ km)
Ceiling: at least 12,000 feet AGL
Clouds: sky clear below 12,000 feet AGL
Weather: no significant weather observed at this time

METAR text: UTDD 230130Z VRB01MPS 9999 NSC M02/M07 Q1021 R09/D NOSIG RMK QFE697/0929
Conditions at: UTDD (DUSHANBE , TJ) observed 0130 UTC 23 January 2019
Temperature: -2.0°C (28°F)
Dewpoint: -7.0°C (19°F) [RH = 69%]
Pressure (altimeter): 30.15 inches Hg (1021.0 mb)
Winds: variable direction winds at 2 MPH (2 knots; 1.0 m/s)
Visibility: 6 or more miles (10+ km)
Ceiling: at least 12,000 feet AGL
Clouds: sky clear below 12,000 feet AGL
Weather: no significant weather observed at this time

METAR text: UTDD 230100Z 05003MPS 9999 NSC M03/M07 Q1021 R09/D NOSIG RMK QFE697/0929
Conditions at: UTDD (DUSHANBE , TJ) observed 0100 UTC 23 January 2019
Temperature: -3.0°C (27°F)
Dewpoint: -7.0°C (19°F) [RH = 74%]
Pressure (altimeter): 30.15 inches Hg (1021.0 mb)
Winds: from the NE (50 degrees) at 7 MPH (6 knots; 3.1 m/s)
Visibility: 6 or more miles (10+ km)
Ceiling: at least 12,000 feet AGL
Clouds: sky clear below 12,000 feet AGL
Weather: no significant weather observed at this time

METAR text: UTDD 230030Z VRB02MPS 9999 NSC M03/M06 Q1020 R09/D NOSIG RMK QFE697/0929
Conditions at: UTDD (DUSHANBE , TJ) observed 0030 UTC 23 January 2019
Temperature: -3.0°C (27°F)
Dewpoint: -6.0°C (21°F) [RH = 80%]
Pressure (altimeter): 30.12 inches Hg (1020.0 mb)
Winds: variable direction winds at 5 MPH (4 knots; 2.1 m/s)
Visibility: 6 or more miles (10+ km)
Ceiling: at least 12,000 feet AGL
Clouds: sky clear below 12,000 feet AGL
Weather: no significant weather observed at this time

METAR text: UTDD 230000Z 03002MPS 9999 NSC M03/M07 Q1020 R09/D NOSIG RMK QFE697/0929
Conditions at: UTDD (DUSHANBE , TJ) observed 0000 UTC 23 January 2019
Temperature: -3.0°C (27°F)
Dewpoint: -7.0°C (19°F) [RH = 74%]
Pressure (altimeter): 30.12 inches Hg (1020.0 mb)
Winds: from the NNE (30 degrees) at 5 MPH (4 knots; 2.1 m/s)
Visibility: 6 or more miles (10+ km)
Ceiling: at least 12,000 feet AGL
Clouds: sky clear below 12,000 feet AGL
Weather: no significant weather observed at this time

METAR text: UTDD 222330Z VRB02MPS 9999 NSC M03/M07 Q1021 R09/D NOSIG RMK QFE697/0929
Conditions at: UTDD (DUSHANBE , TJ) observed 2330 UTC 22 January 2019
Temperature: -3.0°C (27°F)
Dewpoint: -7.0°C (19°F) [RH = 74%]
Pressure (altimeter): 30.15 inches Hg (1021.0 mb)
Winds: variable direction winds at 5 MPH (4 knots; 2.1 m/s)
Visibility: 6 or more miles (10+ km)
Ceiling: at least 12,000 feet AGL
Clouds: sky clear below 12,000 feet AGL
Weather: no significant weather observed at this time

METAR text: UTDD 222300Z VRB01MPS 9999 NSC M03/M07 Q1021 R09/D NOSIG RMK QFE697/0929
Conditions at: UTDD (DUSHANBE , TJ) observed 2300 UTC 22 January 2019
Temperature: -3.0°C (27°F)
Dewpoint: -7.0°C (19°F) [RH = 74%]
Pressure (altimeter): 30.15 inches Hg (1021.0 mb)
Winds: variable direction winds at 2 MPH (2 knots; 1.0 m/s)
Visibility: 6 or more miles (10+ km)
Ceiling: at least 12,000 feet AGL
Clouds: sky clear below 12,000 feet AGL
Weather: no significant weather observed at this time

METAR text: UTDD 222230Z VRB01MPS 9999 NSC M02/M06 Q1021 R09/D NOSIG RMK QFE697/0929
Conditions at: UTDD (DUSHANBE , TJ) observed 2230 UTC 22 January 2019
Temperature: -2.0°C (28°F)
Dewpoint: -6.0°C (21°F) [RH = 74%]
Pressure (altimeter): 30.15 inches Hg (1021.0 mb)
Winds: variable direction winds at 2 MPH (2 knots; 1.0 m/s)
Visibility: 6 or more miles (10+ km)
Ceiling: at least 12,000 feet AGL
Clouds: sky clear below 12,000 feet AGL
Weather: no significant weather observed at this time

METAR text: UTDD 222200Z 03002MPS 9000 NSC M03/M06 Q1021 R09/D NOSIG RMK QFE697/0929
Conditions at: UTDD (DUSHANBE , TJ) observed 2200 UTC 22 January 2019
Temperature: -3.0°C (27°F)
Dewpoint: -6.0°C (21°F) [RH = 80%]
Pressure (altimeter): 30.15 inches Hg (1021.0 mb)
Winds: from the NNE (30 degrees) at 5 MPH (4 knots; 2.1 m/s)
Visibility: 6 miles ( 9 km)
Ceiling: at least 12,000 feet AGL
Clouds: sky clear below 12,000 feet AGL
Weather: no significant weather observed at this time

METAR text: UTDD 222130Z VRB01MPS 7000 NSC M03/M06 Q1021 R09/D NOSIG RMK QFE697/0929
Conditions at: UTDD (DUSHANBE , TJ) observed 2130 UTC 22 January 2019
Temperature: -3.0°C (27°F)
Dewpoint: -6.0°C (21°F) [RH = 80%]
Pressure (altimeter): 30.15 inches Hg (1021.0 mb)
Winds: variable direction winds at 2 MPH (2 knots; 1.0 m/s)
Visibility: 4 miles ( 7 km)
Ceiling: at least 12,000 feet AGL
Clouds: sky clear below 12,000 feet AGL
Weather: no significant weather observed at this time

METAR text: UTDD 222100Z 05001MPS 8000 NSC M02/M06 Q1021 R09/D NOSIG RMK QFE697/0929
Conditions at: UTDD (DUSHANBE , TJ) observed 2100 UTC 22 January 2019
Temperature: -2.0°C (28°F)
Dewpoint: -6.0°C (21°F) [RH = 74%]
Pressure (altimeter): 30.15 inches Hg (1021.0 mb)
Winds: from the NE (50 degrees) at 2 MPH (2 knots; 1.0 m/s)
Visibility: 5 miles ( 8 km)
Ceiling: at least 12,000 feet AGL
Clouds: sky clear below 12,000 feet AGL
Weather: no significant weather observed at this time

METAR text: UTDD 222030Z VRB01MPS 9000 NSC M02/M06 Q1021 R09/D NOSIG RMK QFE697/0929
Conditions at: UTDD (DUSHANBE , TJ) observed 2030 UTC 22 January 2019
Temperature: -2.0°C (28°F)
Dewpoint: -6.0°C (21°F) [RH = 74%]
Pressure (altimeter): 30.15 inches Hg (1021.0 mb)
Winds: variable direction winds at 2 MPH (2 knots; 1.0 m/s)
Visibility: 6 miles ( 9 km)
Ceiling: at least 12,000 feet AGL
Clouds: sky clear below 12,000 feet AGL
Weather: no significant weather observed at this time

METAR text: UTDD 222000Z 01001MPS 8000 NSC M02/M05 Q1021 R09/D NOSIG RMK QFE697/0929
Conditions at: UTDD (DUSHANBE , TJ) observed 2000 UTC 22 January 2019
Temperature: -2.0°C (28°F)
Dewpoint: -5.0°C (23°F) [RH = 80%]
Pressure (altimeter): 30.15 inches Hg (1021.0 mb)
Winds: from the N (10 degrees) at 2 MPH (2 knots; 1.0 m/s)
Visibility: 5 miles ( 8 km)
Ceiling: at least 12,000 feet AGL
Clouds: sky clear below 12,000 feet AGL
Weather: no significant weather observed at this time

METAR text: UTDD 221930Z 04001MPS 6000 NSC M02/M05 Q1021 R09/D NOSIG RMK QFE697/0929
Conditions at: UTDD (DUSHANBE , TJ) observed 1930 UTC 22 January 2019
Temperature: -2.0°C (28°F)
Dewpoint: -5.0°C (23°F) [RH = 80%]
Pressure (altimeter): 30.15 inches Hg (1021.0 mb)
Winds: from the NE (40 degrees) at 2 MPH (2 knots; 1.0 m/s)
Visibility: 4 miles ( 6 km)
Ceiling: at least 12,000 feet AGL
Clouds: sky clear below 12,000 feet AGL
Weather: no significant weather observed at this time

METAR text: UTDD 221900Z 09002MPS 6000 NSC M02/M06 Q1021 R09/D NOSIG RMK QFE697/0929
Conditions at: UTDD (DUSHANBE , TJ) observed 1900 UTC 22 January 2019
Temperature: -2.0°C (28°F)
Dewpoint: -6.0°C (21°F) [RH = 74%]
Pressure (altimeter): 30.15 inches Hg (1021.0 mb)
Winds: from the E (90 degrees) at 5 MPH (4 knots; 2.1 m/s)
Visibility: 4 miles ( 6 km)
Ceiling: at least 12,000 feet AGL
Clouds: sky clear below 12,000 feet AGL
Weather: no significant weather observed at this time

METAR text: UTDD 221830Z 07002MPS 6000 NSC M02/M05 Q1021 R09/D NOSIG RMK QFE697/0929
Conditions at: UTDD (DUSHANBE , TJ) observed 1830 UTC 22 January 2019
Temperature: -2.0°C (28°F)
Dewpoint: -5.0°C (23°F) [RH = 80%]
Pressure (altimeter): 30.15 inches Hg (1021.0 mb)
Winds: from the ENE (70 degrees) at 5 MPH (4 knots; 2.1 m/s)
Visibility: 4 miles ( 6 km)
Ceiling: at least 12,000 feet AGL
Clouds: sky clear below 12,000 feet AGL
Weather: no significant weather observed at this time

METAR text: UTDD 221800Z VRB01MPS 6000 NSC M01/M06 Q1020 R09/D NOSIG RMK QFE697/0929
Conditions at: UTDD (DUSHANBE , TJ) observed 1800 UTC 22 January 2019
Temperature: -1.0°C (30°F)
Dewpoint: -6.0°C (21°F) [RH = 69%]
Pressure (altimeter): 30.12 inches Hg (1020.0 mb)
Winds: variable direction winds at 2 MPH (2 knots; 1.0 m/s)
Visibility: 4 miles ( 6 km)
Ceiling: at least 12,000 feet AGL
Clouds: sky clear below 12,000 feet AGL
Weather: no significant weather observed at this time

METAR text: UTDD 221730Z VRB01MPS 5000 BR FU NSC M01/M05 Q1020 R09/D NOSIG RMK QFE697/0929
Conditions at: UTDD (DUSHANBE , TJ) observed 1730 UTC 22 January 2019
Temperature: -1.0°C (30°F)
Dewpoint: -5.0°C (23°F) [RH = 74%]
Pressure (altimeter): 30.12 inches Hg (1020.0 mb)
Winds: variable direction winds at 2 MPH (2 knots; 1.0 m/s)
Visibility: 3 miles ( 5 km)
Ceiling: at least 12,000 feet AGL
Clouds: sky clear below 12,000 feet AGL
Weather: BR FU  (mist, smoke)

METAR text: UTDD 221700Z 04002MPS 6000 NSC M01/M05 Q1020 R09/D NOSIG RMK QFE697/0929
Conditions at: UTDD (DUSHANBE , TJ) observed 1700 UTC 22 January 2019
Temperature: -1.0°C (30°F)
Dewpoint: -5.0°C (23°F) [RH = 74%]
Pressure (altimeter): 30.12 inches Hg (1020.0 mb)
Winds: from the NE (40 degrees) at 5 MPH (4 knots; 2.1 m/s)
Visibility: 4 miles ( 6 km)
Ceiling: at least 12,000 feet AGL
Clouds: sky clear below 12,000 feet AGL
Weather: no significant weather observed at this time

METAR text: UTDD 221630Z 06002MPS 4400 BR FU NSC M01/M05 Q1020 R09/D NOSIG RMK QFE696/0929
Conditions at: UTDD (DUSHANBE , TJ) observed 1630 UTC 22 January 2019
Temperature: -1.0°C (30°F)
Dewpoint: -5.0°C (23°F) [RH = 74%]
Pressure (altimeter): 30.12 inches Hg (1020.0 mb)
Winds: from the ENE (60 degrees) at 5 MPH (4 knots; 2.1 m/s)
Visibility: 2.73 miles (4.39 km)
Ceiling: at least 12,000 feet AGL
Clouds: sky clear below 12,000 feet AGL
Weather: BR FU  (mist, smoke)

METAR text: UTDD 221600Z 09002MPS 3500 BR FU FEW025 M01/M05 Q1020 R09/D NOSIG RMK QFE696/0929
Conditions at: UTDD (DUSHANBE , TJ) observed 1600 UTC 22 January 2019
Temperature: -1.0°C (30°F)
Dewpoint: -5.0°C (23°F) [RH = 74%]
Pressure (altimeter): 30.12 inches Hg (1020.0 mb)
Winds: from the E (90 degrees) at 5 MPH (4 knots; 2.1 m/s)
Visibility: 2.17 miles (3.49 km)
Ceiling: at least 12,000 feet AGL
Clouds: few clouds at 2500 feet AGL
Weather: BR FU  (mist, smoke)

METAR text: UTDD 221530Z 07001MPS 4600 FU NSC 00/M05 Q1020 R09/D NOSIG RMK QFE696/0928
Conditions at: UTDD (DUSHANBE , TJ) observed 1530 UTC 22 January 2019
Temperature: 0.0°C (32°F)
Dewpoint: -5.0°C (23°F) [RH = 69%]
Pressure (altimeter): 30.12 inches Hg (1020.0 mb)
Winds: from the ENE (70 degrees) at 2 MPH (2 knots; 1.0 m/s)
Visibility: 2.86 miles (4.60 km)
Ceiling: at least 12,000 feet AGL
Clouds: sky clear below 12,000 feet AGL
Weather: FU  (smoke)

METAR text: UTDD 221500Z VRB02MPS 4400 BR FU NSC M01/M04 Q1020 R09/D NOSIG RMK QFE696/0928
Conditions at: UTDD (DUSHANBE , TJ) observed 1500 UTC 22 January 2019
Temperature: -1.0°C (30°F)
Dewpoint: -4.0°C (25°F) [RH = 80%]
Pressure (altimeter): 30.12 inches Hg (1020.0 mb)
Winds: variable direction winds at 5 MPH (4 knots; 2.1 m/s)
Visibility: 2.73 miles (4.39 km)
Ceiling: at least 12,000 feet AGL
Clouds: sky clear below 12,000 feet AGL
Weather: BR FU  (mist, smoke)

METAR text: UTDD 221430Z 02002MPS 4000 BR FU NSC 00/M04 Q1020 R09/D NOSIG RMK QFE696/0928
Conditions at: UTDD (DUSHANBE , TJ) observed 1430 UTC 22 January 2019
Temperature: 0.0°C (32°F)
Dewpoint: -4.0°C (25°F) [RH = 74%]
Pressure (altimeter): 30.12 inches Hg (1020.0 mb)
Winds: from the NNE (20 degrees) at 5 MPH (4 knots; 2.1 m/s)
Visibility: 2.49 miles (4.01 km)
Ceiling: at least 12,000 feet AGL
Clouds: sky clear below 12,000 feet AGL
Weather: BR FU  (mist, smoke)

METAR text: UTDD 221400Z 04002MPS 4500 FU NSC 01/M05 Q1019 R09/D NOSIG RMK QFE696/0928
Conditions at: UTDD (DUSHANBE , TJ) observed 1400 UTC 22 January 2019
Temperature: 1.0°C (34°F)
Dewpoint: -5.0°C (23°F) [RH = 64%]
Pressure (altimeter): 30.09 inches Hg (1019.0 mb)
Winds: from the NE (40 degrees) at 5 MPH (4 knots; 2.1 m/s)
Visibility: 2.80 miles (4.51 km)
Ceiling: at least 12,000 feet AGL
Clouds: sky clear below 12,000 feet AGL
Weather: FU  (smoke)

METAR text: UTDD 221330Z VRB01MPS 5000 FU NSC 01/M05 Q1019 R09/D NOSIG RMK QFE696/0928
Conditions at: UTDD (DUSHANBE , TJ) observed 1330 UTC 22 January 2019
Temperature: 1.0°C (34°F)
Dewpoint: -5.0°C (23°F) [RH = 64%]
Pressure (altimeter): 30.09 inches Hg (1019.0 mb)
Winds: variable direction winds at 2 MPH (2 knots; 1.0 m/s)
Visibility: 3 miles ( 5 km)
Ceiling: at least 12,000 feet AGL
Clouds: sky clear below 12,000 feet AGL
Weather: FU  (smoke)

METAR text: UTDD 221300Z 24001MPS 7000 NSC 01/M05 Q1019 R09/D NOSIG RMK QFE696/0927
Conditions at: UTDD (DUSHANBE , TJ) observed 1300 UTC 22 January 2019
Temperature: 1.0°C (34°F)
Dewpoint: -5.0°C (23°F) [RH = 64%]
Pressure (altimeter): 30.09 inches Hg (1019.0 mb)
Winds: from the WSW (240 degrees) at 2 MPH (2 knots; 1.0 m/s)
Visibility: 4 miles ( 7 km)
Ceiling: at least 12,000 feet AGL
Clouds: sky clear below 12,000 feet AGL
Weather: no significant weather observed at this time

METAR text: UTDD 221230Z 20002MPS 6000 NSC 02/M05 Q1019 R09/D NOSIG RMK QFE695/0927
Conditions at: UTDD (DUSHANBE , TJ) observed 1230 UTC 22 January 2019
Temperature: 2.0°C (36°F)
Dewpoint: -5.0°C (23°F) [RH = 60%]
Pressure (altimeter): 30.09 inches Hg (1019.0 mb)
Winds: from the SSW (200 degrees) at 5 MPH (4 knots; 2.1 m/s)
Visibility: 4 miles ( 6 km)
Ceiling: at least 12,000 feet AGL
Clouds: sky clear below 12,000 feet AGL
Weather: no significant weather observed at this time

METAR text: UTDD 221200Z 15002MPS 9999 NSC 03/M05 Q1018 R09/D NOSIG RMK QFE695/0927
Conditions at: UTDD (DUSHANBE , TJ) observed 1200 UTC 22 January 2019
Temperature: 3.0°C (37°F)
Dewpoint: -5.0°C (23°F) [RH = 56%]
Pressure (altimeter): 30.06 inches Hg (1018.0 mb)
Winds: from the SSE (150 degrees) at 5 MPH (4 knots; 2.1 m/s)
Visibility: 6 or more miles (10+ km)
Ceiling: at least 12,000 feet AGL
Clouds: sky clear below 12,000 feet AGL
Weather: no significant weather observed at this time

METAR text: UTDD 221130Z 16002MPS 9000 NSC 03/M05 Q1018 R09/D NOSIG RMK QFE695/0927
Conditions at: UTDD (DUSHANBE , TJ) observed 1130 UTC 22 January 2019
Temperature: 3.0°C (37°F)
Dewpoint: -5.0°C (23°F) [RH = 56%]
Pressure (altimeter): 30.06 inches Hg (1018.0 mb)
Winds: from the SSE (160 degrees) at 5 MPH (4 knots; 2.1 m/s)
Visibility: 6 miles ( 9 km)
Ceiling: at least 12,000 feet AGL
Clouds: sky clear below 12,000 feet AGL
Weather: no significant weather observed at this time

METAR text: UTDD 221100Z VRB02MPS 9000 NSC 04/M05 Q1018 R09/D NOSIG RMK QFE695/0927
Conditions at: UTDD (DUSHANBE , TJ) observed 1100 UTC 22 January 2019
Temperature: 4.0°C (39°F)
Dewpoint: -5.0°C (23°F) [RH = 52%]
Pressure (altimeter): 30.06 inches Hg (1018.0 mb)
Winds: variable direction winds at 5 MPH (4 knots; 2.1 m/s)
Visibility: 6 miles ( 9 km)
Ceiling: at least 12,000 feet AGL
Clouds: sky clear below 12,000 feet AGL
Weather: no significant weather observed at this time

METAR text: UTDD 221030Z 13002MPS 9000 NSC 03/M06 Q1018 R09/D NOSIG RMK QFE695/0927
Conditions at: UTDD (DUSHANBE , TJ) observed 1030 UTC 22 January 2019
Temperature: 3.0°C (37°F)
Dewpoint: -6.0°C (21°F) [RH = 52%]
Pressure (altimeter): 30.06 inches Hg (1018.0 mb)
Winds: from the SE (130 degrees) at 5 MPH (4 knots; 2.1 m/s)
Visibility: 6 miles ( 9 km)
Ceiling: at least 12,000 feet AGL
Clouds: sky clear below 12,000 feet AGL
Weather: no significant weather observed at this time

METAR text: UTDD 221000Z VRB01MPS 9000 NSC 03/M05 Q1018 R09/D NOSIG RMK QFE695/0927
Conditions at: UTDD (DUSHANBE , TJ) observed 1000 UTC 22 January 2019
Temperature: 3.0°C (37°F)
Dewpoint: -5.0°C (23°F) [RH = 56%]
Pressure (altimeter): 30.06 inches Hg (1018.0 mb)
Winds: variable direction winds at 2 MPH (2 knots; 1.0 m/s)
Visibility: 6 miles ( 9 km)
Ceiling: at least 12,000 feet AGL
Clouds: sky clear below 12,000 feet AGL
Weather: no significant weather observed at this time

METAR text: UTDD 220930Z VRB01MPS 8000 NSC 03/M05 Q1018 R09/D NOSIG RMK QFE695/0927
Conditions at: UTDD (DUSHANBE , TJ) observed 0930 UTC 22 January 2019
Temperature: 3.0°C (37°F)
Dewpoint: -5.0°C (23°F) [RH = 56%]
Pressure (altimeter): 30.06 inches Hg (1018.0 mb)
Winds: variable direction winds at 2 MPH (2 knots; 1.0 m/s)
Visibility: 5 miles ( 8 km)
Ceiling: at least 12,000 feet AGL
Clouds: sky clear below 12,000 feet AGL
Weather: no significant weather observed at this time

METAR text: UTDD 220900Z VRB02MPS 7000 NSC 03/M06 Q1018 R09/CLRD// NOSIG RMK QFE695/0927
Conditions at: UTDD (DUSHANBE , TJ) observed 0900 UTC 22 January 2019
Temperature: 3.0°C (37°F)
Dewpoint: -6.0°C (21°F) [RH = 52%]
Pressure (altimeter): 30.06 inches Hg (1018.0 mb)
Winds: variable direction winds at 5 MPH (4 knots; 2.1 m/s)
Visibility: 4 miles ( 7 km)
Ceiling: at least 12,000 feet AGL
Clouds: sky clear below 12,000 feet AGL
Weather: no significant weather observed at this time

Forecast for: UTDD (DUSHANBE , TJ)
Text: TAF UTDD 231800Z 2319/2407 VRB02MPS 3100 BR FU SCT040 BKN100
Forecast period: 1900 UTC 23 January 2019 to 0700 UTC 24 January 2019
Forecast type: FROM: standard forecast or significant change
Winds: variable direction winds at 5 MPH (4 knots; 2.1 m/s)
Visibility: 1.93 miles (3.11 km)
Ceiling: 10000 feet AGL
Clouds: scattered clouds at 4000 feet AGL
broken clouds at 10000 feet AGL
Weather: BR FU  (mist, smoke)
Text: TEMPO 2402/2405 0500 FZFG FU
Forecast period: 0200 to 0500 UTC 24 January 2019
Forecast type: TEMPORARY: The following changes expected for less than half the time period
Visibility: 0.31 miles (0.50 km)
Ceiling: unknown
Clouds: missing
Weather: FZFG FU  (freezing fog, smoke)